Time;durP1;ratioP1;P1;durP2;ratioP2;P2;SDS_P1;SDS_P2;PMS_P1;PMS_P2;Temp;Humidity;BMP_temperature;BMP_pressure;BME280_temperature;BME280_humidity;BME280_pressure;Samples;Min_cycle;Max_cycle;Signal;HPM_P1;HPM_P2
2022/01/17 00:00:40;;;;;;;15.57;7.50;;;6.80;99.90;;;;;;5090836;28;20225;-69
2022/01/17 00:03:07;;;;;;;19.63;8.10;;;6.80;99.90;;;;;;5079784;28;20216;-69
2022/01/17 00:05:34;;;;;;;16.40;7.43;;;6.70;99.90;;;;;;5083425;28;20858;-69
2022/01/17 00:08:01;;;;;;;16.23;8.00;;;6.70;99.90;;;;;;5080231;28;20210;-69
2022/01/17 00:10:28;;;;;;;13.93;7.83;;;6.70;99.90;;;;;;5070629;28;20291;-69
2022/01/17 00:12:58;;;;;;;15.37;7.90;;;6.70;99.90;;;;;;5084564;28;20342;-69
2022/01/17 00:15:31;;;;;;;15.87;7.77;;;6.70;99.90;;;;;;5090235;28;20284;-69
2022/01/17 00:18:23;;;;;;;17.80;8.40;;;6.70;99.90;;;;;;5073459;28;20253;-69
2022/01/17 00:20:50;;;;;;;16.70;7.97;;;6.70;99.90;;;;;;5077949;28;20624;-69
2022/01/17 00:23:18;;;;;;;19.43;7.63;;;6.80;99.90;;;;;;5092796;28;20246;-69
2022/01/17 00:25:45;;;;;;;12.53;7.00;;;6.70;99.90;;;;;;5097024;28;20225;-69
2022/01/17 00:28:12;;;;;;;17.87;7.33;;;6.80;99.90;;;;;;5083699;28;20225;-69
2022/01/17 00:30:41;;;;;;;13.20;6.00;;;6.80;99.90;;;;;;5076281;28;20233;-68
2022/01/17 00:33:08;;;;;;;14.93;6.30;;;6.80;99.90;;;;;;5093808;28;20205;-69
2022/01/17 00:35:35;;;;;;;10.60;6.10;;;6.80;99.90;;;;;;5096327;28;20254;-69
2022/01/17 00:38:02;;;;;;;12.20;5.60;;;6.80;99.90;;;;;;5092631;28;20224;-69
2022/01/17 00:40:29;;;;;;;12.97;6.00;;;6.90;99.90;;;;;;5093037;28;20228;-68
2022/01/17 00:42:56;;;;;;;8.13;4.53;;;6.90;99.90;;;;;;5090552;28;20614;-69
2022/01/17 00:45:27;;;;;;;11.97;5.10;;;6.90;99.90;;;;;;5076798;28;20588;-69
2022/01/17 00:47:56;;;;;;;9.57;5.13;;;6.90;99.90;;;;;;5077575;28;20201;-69
2022/01/17 00:50:24;;;;;;;12.03;5.33;;;6.90;99.90;;;;;;5092890;28;20203;-69
2022/01/17 00:52:51;;;;;;;10.77;4.73;;;6.80;99.90;;;;;;5077194;28;20293;-69
2022/01/17 00:55:19;;;;;;;9.37;4.20;;;6.80;99.90;;;;;;5093109;28;20225;-69
2022/01/17 00:57:46;;;;;;;7.10;4.07;;;6.80;99.90;;;;;;5097008;28;20217;-69
2022/01/17 01:00:14;;;;;;;8.47;3.40;;;6.80;99.90;;;;;;5094552;28;20202;-69
2022/01/17 01:02:42;;;;;;;7.17;3.23;;;6.80;99.90;;;;;;5095040;28;20262;-71
2022/01/17 01:05:12;;;;;;;9.40;2.90;;;6.70;99.90;;;;;;5094317;28;20244;-68
2022/01/17 01:07:39;;;;;;;8.77;2.63;;;6.70;99.90;;;;;;5093908;28;20197;-69
2022/01/17 01:10:10;;;;;;;7.77;2.40;;;6.60;99.90;;;;;;5088883;28;20229;-68
2022/01/17 01:12:38;;;;;;;9.43;2.57;;;6.60;99.90;;;;;;5096724;28;20287;-68
2022/01/17 01:15:09;;;;;;;9.53;1.80;;;6.60;99.90;;;;;;5086703;28;20275;-68
2022/01/17 01:17:48;;;;;;;4.67;1.57;;;6.60;99.90;;;;;;5089175;28;20673;-68
2022/01/17 01:20:26;;;;;;;4.60;1.27;;;6.60;99.90;;;;;;5097560;28;20602;-68
2022/01/17 01:28:22;;;;;;;6.93;1.50;;;6.50;99.90;;;;;;5085069;28;20205;-68
2022/01/17 01:30:53;;;;;;;8.00;1.80;;;6.50;99.90;;;;;;5074407;28;20264;-68
2022/01/17 01:33:25;;;;;;;3.90;1.33;;;6.40;99.90;;;;;;5091694;28;20288;-68
2022/01/17 01:36:00;;;;;;;8.40;1.77;;;6.40;99.90;;;;;;5093481;28;20298;-68
2022/01/17 01:38:27;;;;;;;6.17;1.60;;;6.30;99.90;;;;;;5092789;28;20325;-69
2022/01/17 01:40:54;;;;;;;6.50;1.53;;;6.30;99.90;;;;;;5085656;28;20190;-68
2022/01/17 01:43:21;;;;;;;6.37;1.40;;;6.30;99.90;;;;;;5093523;28;20209;-68
2022/01/17 01:45:49;;;;;;;5.90;1.63;;;6.30;99.90;;;;;;5093663;28;20582;-69
2022/01/17 01:48:18;;;;;;;7.20;2.10;;;6.30;99.90;;;;;;5086602;28;20198;-68
2022/01/17 01:50:46;;;;;;;8.50;1.80;;;6.30;99.90;;;;;;5089227;28;20838;-68
2022/01/17 01:53:14;;;;;;;4.37;1.70;;;6.30;99.90;;;;;;5087368;28;20202;-69
2022/01/17 01:55:41;;;;;;;8.27;1.63;;;6.30;99.90;;;;;;5077245;28;20588;-68
2022/01/17 01:58:10;;;;;;;6.93;1.30;;;6.30;99.90;;;;;;5093517;28;20271;-69
2022/01/17 02:00:38;;;;;;;5.30;1.53;;;6.40;99.90;;;;;;5093883;28;20307;-68
2022/01/17 02:03:05;;;;;;;7.50;1.57;;;6.40;99.90;;;;;;5080216;28;20198;-68
2022/01/17 02:05:32;;;;;;;6.37;1.57;;;6.40;99.90;;;;;;5075059;28;20214;-68
2022/01/17 02:07:59;;;;;;;5.87;1.47;;;6.40;99.90;;;;;;5093764;28;20751;-68
2022/01/17 02:10:28;;;;;;;4.20;1.23;;;6.30;99.90;;;;;;5082403;28;20202;-68
2022/01/17 02:12:55;;;;;;;7.47;1.30;;;6.40;99.90;;;;;;5077835;28;20836;-68
2022/01/17 02:15:22;;;;;;;7.47;1.50;;;6.40;99.90;;;;;;5093027;28;20209;-68
2022/01/17 02:17:54;;;;;;;11.43;1.60;;;6.50;99.90;;;;;;5089197;28;20331;-68
2022/01/17 02:20:27;;;;;;;10.57;1.67;;;6.50;99.90;;;;;;5091934;28;20213;-68
2022/01/17 02:22:54;;;;;;;6.53;1.77;;;6.40;99.90;;;;;;5092067;28;20208;-68
2022/01/17 02:25:21;;;;;;;11.37;1.60;;;6.40;99.90;;;;;;5093133;28;20227;-68
2022/01/17 02:27:48;;;;;;;7.70;1.83;;;6.40;99.90;;;;;;5092675;28;20259;-68
2022/01/17 02:30:21;;;;;;;7.67;1.67;;;6.40;99.90;;;;;;5082005;28;20255;-68
2022/01/17 02:32:48;;;;;;;8.20;1.67;;;6.40;99.90;;;;;;5093220;28;20554;-68
2022/01/17 02:35:17;;;;;;;7.90;1.30;;;6.30;99.90;;;;;;5092368;28;20247;-68
2022/01/17 02:37:46;;;;;;;4.90;1.23;;;6.30;99.90;;;;;;5077510;28;20272;-68
2022/01/17 02:40:15;;;;;;;6.90;1.30;;;6.30;99.90;;;;;;5085015;28;20632;-68
2022/01/17 02:42:44;;;;;;;11.73;1.70;;;6.30;99.90;;;;;;5091032;28;20262;-68
2022/01/17 02:45:29;;;;;;;5.30;1.10;;;6.30;99.90;;;;;;5071055;28;20210;-68
2022/01/17 02:47:57;;;;;;;5.10;1.23;;;6.30;99.90;;;;;;5086866;28;20573;-69
2022/01/17 02:50:24;;;;;;;11.33;1.63;;;6.30;99.90;;;;;;5077854;28;20251;-68
2022/01/17 02:52:52;;;;;;;5.77;1.13;;;6.30;99.90;;;;;;5074185;28;20206;-68
2022/01/17 02:55:19;;;;;;;11.50;1.70;;;6.30;99.90;;;;;;5072365;28;20671;-71
2022/01/17 02:57:47;;;;;;;7.97;2.17;;;6.30;99.90;;;;;;5092148;28;20270;-68
2022/01/17 03:00:15;;;;;;;8.83;1.50;;;6.40;99.90;;;;;;5089318;28;20639;-68
2022/01/17 03:02:46;;;;;;;7.90;2.03;;;6.30;99.90;;;;;;5071270;28;20244;-68
2022/01/17 03:05:13;;;;;;;9.77;1.80;;;6.30;99.90;;;;;;5071067;28;20206;-68
2022/01/17 03:07:40;;;;;;;6.97;1.57;;;6.40;99.90;;;;;;5092217;28;20255;-69
2022/01/17 03:10:18;;;;;;;8.87;2.03;;;6.30;99.90;;;;;;5080165;28;20255;-68
2022/01/17 03:12:45;;;;;;;8.47;1.67;;;6.30;99.90;;;;;;5070309;28;20206;-69
2022/01/17 03:15:13;;;;;;;9.23;2.63;;;6.30;99.90;;;;;;5087468;28;20869;-68
2022/01/17 03:17:40;;;;;;;9.87;1.80;;;6.30;99.90;;;;;;5090790;28;20225;-68
2022/01/17 03:20:09;;;;;;;9.43;1.73;;;6.40;99.90;;;;;;5086775;28;20621;-69
2022/01/17 03:22:35;;;;;;;6.40;1.50;;;6.30;99.90;;;;;;5073757;28;20202;-68
2022/01/17 03:25:03;;;;;;;8.80;1.70;;;6.30;99.90;;;;;;5076544;28;20822;-69
2022/01/17 03:27:31;;;;;;;9.07;1.60;;;6.30;99.90;;;;;;5076918;28;20237;-69
2022/01/17 03:29:58;;;;;;;6.93;1.93;;;6.30;99.90;;;;;;5073856;28;20201;-68
2022/01/17 03:32:25;;;;;;;8.17;1.50;;;6.30;99.90;;;;;;5092113;28;20198;-68
2022/01/17 03:34:55;;;;;;;11.50;2.50;;;6.40;99.90;;;;;;5076492;28;20248;-68
2022/01/17 03:37:22;;;;;;;12.63;2.30;;;6.40;99.90;;;;;;5071535;28;20249;-68
2022/01/17 03:39:49;;;;;;;14.20;2.00;;;6.40;99.90;;;;;;5076185;28;20294;-68
2022/01/17 03:42:18;;;;;;;11.37;2.40;;;6.40;99.90;;;;;;5087301;28;20319;-68
2022/01/17 03:44:46;;;;;;;9.67;1.97;;;6.40;99.90;;;;;;5071486;28;20603;-68
2022/01/17 03:47:16;;;;;;;10.67;2.13;;;6.30;99.90;;;;;;5078610;28;20550;-69
2022/01/17 03:49:43;;;;;;;5.30;1.60;;;6.40;99.90;;;;;;5078735;28;20202;-68
2022/01/17 03:52:10;;;;;;;8.87;1.90;;;6.40;99.90;;;;;;5090994;28;20757;-68
2022/01/17 03:54:37;;;;;;;11.13;2.17;;;6.40;99.90;;;;;;5088876;28;20197;-68
2022/01/17 03:57:04;;;;;;;6.40;1.57;;;6.30;99.90;;;;;;5092066;28;20198;-68
2022/01/17 03:59:31;;;;;;;15.80;2.13;;;6.40;99.90;;;;;;5090978;28;20282;-68
2022/01/17 04:02:00;;;;;;;10.27;1.50;;;6.30;99.90;;;;;;5091836;28;20266;-69
2022/01/17 04:04:27;;;;;;;12.60;2.30;;;6.30;99.90;;;;;;5091424;28;20615;-68
2022/01/17 04:06:54;;;;;;;12.37;1.47;;;6.40;99.90;;;;;;5091816;28;20202;-69
2022/01/17 04:09:21;;;;;;;6.70;1.60;;;6.40;99.90;;;;;;5091524;28;20450;-68
2022/01/17 04:11:48;;;;;;;9.07;1.60;;;6.50;99.90;;;;;;5091763;28;20194;-68
2022/01/17 04:14:16;;;;;;;9.57;1.60;;;6.40;99.90;;;;;;5090987;28;20194;-68
2022/01/17 04:16:44;;;;;;;6.03;1.20;;;6.40;99.90;;;;;;5085288;28;20650;-68
2022/01/17 04:19:12;;;;;;;9.00;1.90;;;6.50;99.90;;;;;;5084046;28;20634;-68
2022/01/17 04:21:40;;;;;;;12.00;2.03;;;6.50;99.90;;;;;;5077867;28;20206;-68
2022/01/17 04:24:07;;;;;;;13.00;2.20;;;6.50;99.90;;;;;;5088392;28;20193;-68
2022/01/17 04:26:34;;;;;;;19.37;3.67;;;6.50;99.90;;;;;;5091687;28;20744;-68
2022/01/17 04:29:01;;;;;;;7.83;1.33;;;6.50;99.90;;;;;;5091196;28;20202;-69
2022/01/17 04:31:28;;;;;;;7.13;1.33;;;6.50;99.90;;;;;;5079551;28;20202;-68
2022/01/17 04:33:55;;;;;;;12.23;2.00;;;6.50;99.90;;;;;;5091159;28;20274;-68
2022/01/17 04:36:23;;;;;;;11.60;1.80;;;6.50;99.90;;;;;;5092169;28;20640;-69
2022/01/17 04:38:50;;;;;;;16.00;2.60;;;6.50;99.90;;;;;;5091627;28;20224;-69
2022/01/17 04:41:19;;;;;;;14.40;2.00;;;6.50;99.90;;;;;;5091517;28;20194;-72
2022/01/17 04:44:03;;;;;;;12.83;1.70;;;6.40;99.90;;;;;;5091544;28;20205;-68
2022/01/17 04:46:30;;;;;;;6.13;1.70;;;6.40;99.90;;;;;;5091650;28;20201;-68
2022/01/17 04:48:58;;;;;;;8.57;1.70;;;6.40;99.90;;;;;;5091513;28;20205;-69
2022/01/17 04:51:26;;;;;;;7.77;1.70;;;6.40;99.90;;;;;;5091340;28;20201;-68
2022/01/17 04:54:15;;;;;;;5.70;1.40;;;6.40;99.90;;;;;;5091193;28;20250;-69
2022/01/17 04:56:42;;;;;;;10.40;1.60;;;6.40;99.90;;;;;;5090751;28;20699;-68
2022/01/17 04:59:09;;;;;;;11.73;1.70;;;6.50;99.90;;;;;;5098165;28;20229;-68
2022/01/17 05:01:36;;;;;;;16.77;2.40;;;6.40;99.90;;;;;;5090501;28;20206;-68
2022/01/17 05:04:03;;;;;;;5.73;1.50;;;6.40;99.90;;;;;;5090683;28;20217;-68
2022/01/17 05:06:31;;;;;;;8.27;1.60;;;6.50;99.90;;;;;;5092562;28;20551;-68
2022/01/17 05:08:59;;;;;;;11.73;2.00;;;6.50;99.90;;;;;;5094603;28;20577;-68
2022/01/17 05:11:29;;;;;;;17.50;2.60;;;6.50;99.90;;;;;;5094592;28;20292;-68
2022/01/17 05:13:57;;;;;;;14.80;1.90;;;6.50;99.90;;;;;;5087136;28;20685;-68
2022/01/17 05:16:31;;;;;;;9.13;1.73;;;6.50;99.90;;;;;;5094978;28;20212;-69
2022/01/17 05:21:44;;;;;;;9.40;1.63;;;6.40;99.90;;;;;;5094292;28;20221;-68
2022/01/17 05:24:11;;;;;;;13.93;1.90;;;6.50;99.90;;;;;;5093843;28;20202;-69
2022/01/17 05:26:38;;;;;;;8.37;1.70;;;6.40;99.90;;;;;;5094856;28;20644;-68
2022/01/17 05:29:05;;;;;;;13.90;2.07;;;6.50;99.90;;;;;;5093569;28;20201;-69
2022/01/17 05:31:32;;;;;;;10.23;2.10;;;6.50;99.90;;;;;;5094528;28;20323;-68
2022/01/17 05:33:59;;;;;;;8.47;2.53;;;6.50;99.90;;;;;;5072995;28;20202;-68
2022/01/17 05:36:26;;;;;;;9.27;1.63;;;6.50;99.90;;;;;;5073738;28;20224;-68
2022/01/17 05:38:55;;;;;;;11.63;2.37;;;6.50;99.90;;;;;;5093544;28;20272;-69
2022/01/17 05:41:22;;;;;;;12.43;2.70;;;6.50;99.90;;;;;;5093982;28;20663;-69
2022/01/17 05:43:49;;;;;;;12.23;1.93;;;6.50;99.90;;;;;;5093178;28;20547;-68
2022/01/17 05:46:16;;;;;;;11.90;2.30;;;6.50;99.90;;;;;;5093785;28;20650;-68
2022/01/17 05:48:43;;;;;;;11.47;1.93;;;6.50;99.90;;;;;;5094030;28;20207;-68
2022/01/17 05:51:10;;;;;;;8.70;1.90;;;6.50;99.90;;;;;;5093876;28;20198;-68
2022/01/17 05:53:37;;;;;;;7.57;1.70;;;6.50;99.90;;;;;;5093605;28;20205;-69
2022/01/17 05:56:06;;;;;;;10.33;2.27;;;6.50;99.90;;;;;;5093887;28;20198;-69
2022/01/17 05:58:33;;;;;;;11.17;2.03;;;6.50;99.90;;;;;;5093269;28;20274;-69
2022/01/17 06:01:00;;;;;;;14.03;2.17;;;6.40;99.90;;;;;;5093686;28;20198;-69
2022/01/17 06:03:27;;;;;;;10.43;2.23;;;6.50;99.90;;;;;;5093156;28;20193;-69
2022/01/17 06:05:54;;;;;;;10.27;1.70;;;6.40;99.90;;;;;;5093188;28;20209;-68
2022/01/17 06:08:22;;;;;;;8.67;1.60;;;6.50;99.90;;;;;;5093002;28;20198;-69
2022/01/17 06:10:49;;;;;;;9.00;1.90;;;6.50;99.90;;;;;;5093683;28;20202;-69
2022/01/17 06:13:18;;;;;;;10.77;3.00;;;6.50;99.90;;;;;;5093395;28;20259;-69
2022/01/17 06:15:45;;;;;;;7.50;1.93;;;6.50;99.90;;;;;;5091969;28;20210;-69
2022/01/17 06:18:12;;;;;;;10.30;2.47;;;6.40;99.90;;;;;;5092388;28;20198;-72
2022/01/17 06:20:39;;;;;;;11.37;2.13;;;6.40;99.90;;;;;;5093619;28;20225;-72
2022/01/17 06:23:06;;;;;;;11.70;2.03;;;6.40;99.90;;;;;;5093398;28;20262;-72
2022/01/17 06:25:33;;;;;;;13.40;1.87;;;6.50;99.90;;;;;;5092663;28;20237;-72
2022/01/17 06:28:00;;;;;;;11.87;1.93;;;6.50;99.90;;;;;;5093043;28;20202;-72
2022/01/17 06:30:29;;;;;;;14.07;2.43;;;6.50;99.90;;;;;;5092584;28;20186;-72
2022/01/17 06:32:56;;;;;;;11.20;1.50;;;6.50;99.90;;;;;;5093361;28;20206;-72
2022/01/17 06:35:24;;;;;;;5.80;1.33;;;6.50;99.90;;;;;;5092570;28;20204;-72
2022/01/17 06:37:51;;;;;;;6.93;1.80;;;6.50;99.90;;;;;;5092919;28;20202;-72
2022/01/17 06:40:19;;;;;;;14.20;1.90;;;6.50;99.90;;;;;;5093370;28;20221;-72
2022/01/17 06:42:46;;;;;;;9.13;2.13;;;6.50;99.90;;;;;;5092274;28;20224;-72
2022/01/17 06:45:15;;;;;;;11.80;1.80;;;6.50;99.90;;;;;;5092263;28;20198;-72
2022/01/17 06:47:44;;;;;;;11.23;1.97;;;6.50;99.90;;;;;;5093384;28;20575;-72
2022/01/17 06:50:12;;;;;;;8.70;1.60;;;6.50;99.90;;;;;;5092586;28;20263;-72
2022/01/17 06:52:39;;;;;;;8.27;1.33;;;6.50;99.90;;;;;;5093073;28;20250;-72
2022/01/17 06:55:07;;;;;;;6.27;1.93;;;6.50;99.90;;;;;;5092095;28;20210;-72
2022/01/17 06:57:34;;;;;;;6.43;1.57;;;6.50;99.90;;;;;;5092956;28;20198;-72
2022/01/17 07:00:01;;;;;;;13.93;2.00;;;6.50;99.90;;;;;;5092114;28;20302;-72
2022/01/17 07:02:28;;;;;;;8.50;2.00;;;6.50;99.90;;;;;;5092156;28;20228;-72
2022/01/17 07:04:57;;;;;;;9.53;1.83;;;6.50;99.90;;;;;;5091760;28;20209;-72
2022/01/17 07:07:24;;;;;;;9.57;2.17;;;6.50;99.90;;;;;;5092238;28;20640;-72
2022/01/17 07:09:51;;;;;;;8.97;2.23;;;6.50;99.90;;;;;;5091944;28;20242;-72
2022/01/17 07:12:18;;;;;;;8.23;1.80;;;6.60;99.90;;;;;;5092663;28;20197;-72
2022/01/17 07:14:45;;;;;;;7.70;1.80;;;6.60;99.90;;;;;;5092382;28;20197;-72
2022/01/17 07:17:13;;;;;;;7.73;2.00;;;6.70;99.90;;;;;;5091912;28;20258;-72
2022/01/17 07:19:40;;;;;;;11.57;2.07;;;6.70;99.90;;;;;;5092184;28;20221;-72
2022/01/17 07:22:09;;;;;;;5.20;1.77;;;6.60;99.90;;;;;;5092086;28;20194;-72
2022/01/17 07:24:37;;;;;;;5.60;1.50;;;6.60;99.90;;;;;;5091434;28;20219;-72
2022/01/17 07:27:04;;;;;;;6.40;2.00;;;6.60;99.90;;;;;;5092321;28;20212;-72
2022/01/17 07:29:31;;;;;;;9.80;2.30;;;6.70;99.90;;;;;;5091517;28;20262;-72
2022/01/17 07:31:59;;;;;;;7.50;1.70;;;6.70;99.90;;;;;;5091068;28;20261;-72
2022/01/17 07:34:26;;;;;;;6.50;1.37;;;6.70;99.90;;;;;;5091651;28;20209;-72
2022/01/17 07:36:53;;;;;;;13.03;2.30;;;6.70;99.90;;;;;;5091682;28;20602;-72
2022/01/17 07:39:21;;;;;;;6.33;1.33;;;6.70;99.90;;;;;;5091850;28;20229;-72
2022/01/17 07:41:48;;;;;;;8.80;1.93;;;6.70;99.90;;;;;;5091780;28;20652;-72
2022/01/17 07:44:19;;;;;;;12.47;2.10;;;6.70;99.90;;;;;;5091934;28;20250;-72
2022/01/17 07:46:54;;;;;;;8.03;1.43;;;6.70;99.90;;;;;;5091450;28;20296;-72
2022/01/17 07:49:21;;;;;;;5.10;1.63;;;6.70;99.90;;;;;;5092136;28;20204;-72
2022/01/17 07:51:50;;;;;;;10.77;1.70;;;6.70;99.90;;;;;;5091246;28;20262;-72
2022/01/17 07:54:18;;;;;;;7.90;1.67;;;6.70;99.90;;;;;;5090789;28;20219;-72
2022/01/17 07:56:47;;;;;;;6.77;2.03;;;6.70;99.90;;;;;;5091632;28;20636;-72
2022/01/17 07:59:14;;;;;;;6.67;1.27;;;6.60;99.90;;;;;;5091848;28;20222;-72
2022/01/17 08:01:42;;;;;;;6.73;1.60;;;6.70;99.90;;;;;;5091289;28;20239;-72
2022/01/17 08:04:10;;;;;;;7.90;1.90;;;6.70;99.90;;;;;;5090627;28;20267;-72
2022/01/17 08:06:39;;;;;;;9.23;2.00;;;6.70;99.90;;;;;;5092148;28;20829;-72
2022/01/17 08:09:08;;;;;;;9.30;1.83;;;6.80;99.90;;;;;;5091100;28;20236;-72
2022/01/17 08:11:35;;;;;;;11.27;1.93;;;6.80;99.90;;;;;;5091878;28;20696;-72
2022/01/17 08:14:04;;;;;;;5.90;1.90;;;6.90;99.90;;;;;;5091465;28;20766;-72
2022/01/17 08:16:31;;;;;;;7.63;1.60;;;6.90;99.90;;;;;;5091252;28;20201;-72
2022/01/17 08:18:58;;;;;;;7.17;1.37;;;7.00;99.90;;;;;;5091719;28;20206;-72
2022/01/17 08:21:25;;;;;;;6.97;1.83;;;7.00;99.90;;;;;;5091600;28;20205;-72
2022/01/17 08:23:53;;;;;;;6.67;1.63;;;7.00;99.90;;;;;;5090906;28;20205;-72
2022/01/17 08:26:21;;;;;;;7.97;1.83;;;7.00;99.90;;;;;;5091668;28;20290;-72
2022/01/17 08:28:48;;;;;;;10.30;3.80;;;7.00;99.90;;;;;;5091326;28;20202;-72
2022/01/17 08:31:16;;;;;;;6.17;1.60;;;7.00;99.90;;;;;;5091201;28;20622;-72
2022/01/17 08:33:43;;;;;;;5.03;1.40;;;7.00;99.90;;;;;;5090768;28;20237;-72
2022/01/17 08:36:11;;;;;;;2.73;1.30;;;7.10;99.90;;;;;;5090807;28;20202;-72
2022/01/17 08:38:39;;;;;;;7.47;2.70;;;7.20;99.90;;;;;;5090971;28;20235;-72
2022/01/17 08:41:06;;;;;;;11.63;2.47;;;7.20;99.90;;;;;;5093883;28;20758;-72
2022/01/17 08:43:33;;;;;;;6.13;1.63;;;7.20;99.90;;;;;;5095140;28;20254;-72
2022/01/17 08:46:00;;;;;;;5.77;1.80;;;7.10;99.90;;;;;;5095442;28;20227;-72
2022/01/17 08:48:29;;;;;;;4.23;1.10;;;7.10;99.90;;;;;;5095376;28;20213;-72
2022/01/17 08:50:56;;;;;;;5.03;1.90;;;7.10;99.90;;;;;;5095191;28;20201;-72
2022/01/17 08:53:23;;;;;;;6.17;1.57;;;7.20;99.90;;;;;;5094905;28;20681;-72
2022/01/17 08:55:50;;;;;;;9.73;2.20;;;7.20;99.90;;;;;;5095158;28;20194;-72
2022/01/17 08:58:17;;;;;;;6.13;1.90;;;7.20;99.90;;;;;;5094405;28;20243;-72
2022/01/17 09:00:44;;;;;;;6.77;1.70;;;7.10;99.90;;;;;;5094841;28;20221;-72
2022/01/17 09:03:13;;;;;;;7.43;2.27;;;7.10;99.90;;;;;;5094949;28;20254;-72
2022/01/17 09:05:41;;;;;;;5.00;1.90;;;7.10;99.90;;;;;;5094837;28;20652;-72
2022/01/17 09:08:09;;;;;;;4.77;2.03;;;7.20;99.90;;;;;;5094422;28;20227;-72
2022/01/17 09:10:37;;;;;;;3.67;1.50;;;7.20;99.90;;;;;;5094468;28;20200;-72
2022/01/17 09:13:04;;;;;;;6.83;1.80;;;7.20;99.90;;;;;;5093687;28;20241;-72
2022/01/17 09:15:31;;;;;;;2.97;1.37;;;7.20;99.90;;;;;;5093908;28;20198;-72
2022/01/17 09:17:58;;;;;;;5.63;1.30;;;7.30;99.90;;;;;;5094721;28;20202;-72
2022/01/17 09:20:26;;;;;;;6.87;1.73;;;7.40;99.90;;;;;;5094809;28;20893;-72
2022/01/17 09:22:54;;;;;;;4.90;1.40;;;7.40;99.90;;;;;;5094382;28;20233;-72
2022/01/17 09:25:29;;;;;;;2.80;1.20;;;7.40;99.90;;;;;;5094028;28;20198;-72
2022/01/17 09:27:56;;;;;;;6.27;1.40;;;7.40;99.90;;;;;;5092891;28;20569;-72
2022/01/17 09:30:23;;;;;;;4.30;1.80;;;7.40;99.90;;;;;;5095047;28;20206;-72
2022/01/17 09:32:50;;;;;;;6.77;1.73;;;7.40;99.90;;;;;;5094849;28;20697;-72
2022/01/17 09:35:17;;;;;;;6.53;2.03;;;7.40;99.90;;;;;;5094447;28;20243;-72
2022/01/17 09:37:45;;;;;;;8.17;2.33;;;7.40;99.90;;;;;;5094653;28;20202;-72
2022/01/17 09:40:14;;;;;;;3.80;1.40;;;7.50;99.90;;;;;;5094384;28;20221;-72
2022/01/17 09:42:41;;;;;;;5.87;1.70;;;7.50;99.90;;;;;;5094743;28;20201;-72
2022/01/17 09:45:11;;;;;;;6.60;2.10;;;7.50;99.90;;;;;;5093557;28;20237;-72
2022/01/17 09:47:39;;;;;;;5.47;1.70;;;7.50;99.90;;;;;;5093489;28;20193;-72
2022/01/17 09:50:10;;;;;;;6.20;1.63;;;7.60;99.90;;;;;;5093917;28;20263;-72
2022/01/17 09:52:46;;;;;;;5.33;1.47;;;7.60;99.90;;;;;;5093319;28;20202;-72
2022/01/17 09:55:21;;;;;;;3.53;1.33;;;7.70;99.90;;;;;;5094068;28;20258;-72
2022/01/17 09:57:51;;;;;;;8.70;2.27;;;7.70;99.90;;;;;;5092854;28;20200;-72
2022/01/17 10:00:24;;;;;;;8.07;2.67;;;7.70;99.90;;;;;;5094123;28;20225;-72
2022/01/17 10:02:51;;;;;;;8.53;2.13;;;7.70;99.90;;;;;;5094308;28;20640;-72
2022/01/17 10:05:18;;;;;;;6.23;2.20;;;7.70;99.90;;;;;;5093695;28;20932;-72
2022/01/17 10:07:53;;;;;;;11.70;2.73;;;7.70;99.90;;;;;;5094167;28;20254;-72
2022/01/17 10:10:45;;;;;;;8.60;2.40;;;7.60;99.90;;;;;;5094136;28;20205;-72
2022/01/17 10:13:16;;;;;;;5.87;2.00;;;7.60;99.90;;;;;;5094193;28;20621;-72
2022/01/17 10:16:06;;;;;;;9.70;2.93;;;7.60;99.90;;;;;;5093974;28;20210;-72
2022/01/17 10:18:37;;;;;;;7.57;2.73;;;7.60;99.90;;;;;;5093984;28;20212;-72
2022/01/17 10:21:09;;;;;;;9.03;2.80;;;7.50;99.90;;;;;;5093554;28;20222;-72
2022/01/17 10:23:48;;;;;;;6.23;2.60;;;7.60;99.90;;;;;;5093456;28;20204;-72
2022/01/17 10:29:33;;;;;;;7.07;2.43;;;7.60;99.90;;;;;;5093681;28;20193;-72
2022/01/17 10:34:55;;;;;;;4.10;2.20;;;7.60;99.90;;;;;;5093264;28;20323;-72
2022/01/17 10:37:24;;;;;;;8.10;2.33;;;7.70;99.90;;;;;;5093634;28;20290;-72
2022/01/17 10:39:59;;;;;;;6.50;2.27;;;7.70;99.90;;;;;;5093392;28;20205;-72
2022/01/17 10:42:34;;;;;;;7.40;2.73;;;7.70;99.90;;;;;;5093611;28;20237;-72
2022/01/17 10:45:05;;;;;;;8.47;2.63;;;7.80;99.90;;;;;;5093265;28;20223;-72
2022/01/17 10:47:35;;;;;;;10.87;2.93;;;7.90;99.90;;;;;;5093245;28;20197;-72
2022/01/17 10:50:07;;;;;;;11.73;3.07;;;7.90;99.90;;;;;;5093103;28;20202;-72
2022/01/17 10:52:36;;;;;;;5.27;2.53;;;7.90;99.90;;;;;;5093046;28;20201;-72
2022/01/17 10:55:07;;;;;;;11.00;3.17;;;7.90;99.90;;;;;;5092894;28;20198;-72
2022/01/17 10:57:39;;;;;;;11.10;3.70;;;7.90;99.90;;;;;;5092816;28;20225;-72
2022/01/17 11:00:11;;;;;;;9.13;3.50;;;7.90;99.90;;;;;;5091230;28;20218;-72
2022/01/17 11:02:39;;;;;;;13.43;3.63;;;7.90;99.90;;;;;;5092052;28;20546;-72
2022/01/17 11:05:09;;;;;;;15.13;3.80;;;8.00;99.90;;;;;;5092210;28;20636;-72
2022/01/17 11:07:47;;;;;;;9.80;2.77;;;8.00;99.90;;;;;;5091878;28;20209;-72
2022/01/17 11:10:21;;;;;;;12.53;3.80;;;8.10;99.90;;;;;;5092273;28;20206;-72
2022/01/17 11:12:50;;;;;;;7.43;3.20;;;8.10;99.90;;;;;;5092465;28;20557;-72
2022/01/17 11:15:18;;;;;;;9.43;3.30;;;8.00;99.90;;;;;;5091842;28;20250;-72
2022/01/17 11:17:51;;;;;;;10.87;3.37;;;7.90;99.90;;;;;;5092020;28;20270;-72
2022/01/17 11:20:21;;;;;;;11.60;3.47;;;7.80;99.90;;;;;;5092105;28;20245;-72
2022/01/17 11:22:50;;;;;;;11.70;3.93;;;7.70;99.90;;;;;;5091953;28;20233;-72
2022/01/17 11:25:20;;;;;;;18.93;5.13;;;7.70;99.90;;;;;;5091658;28;20256;-72
2022/01/17 11:27:49;;;;;;;14.77;4.43;;;7.80;99.90;;;;;;5091433;28;20206;-72
2022/01/17 11:30:17;;;;;;;14.03;5.07;;;7.90;99.90;;;;;;5091787;28;20569;-72
2022/01/17 11:32:45;;;;;;;10.43;3.73;;;7.80;99.90;;;;;;5092366;28;20233;-72
2022/01/17 11:35:13;;;;;;;15.27;4.50;;;7.80;99.90;;;;;;5091390;28;20244;-72
2022/01/17 11:37:43;;;;;;;10.77;2.93;;;7.90;99.90;;;;;;5092532;28;20262;-72
2022/01/17 11:40:12;;;;;;;15.17;5.00;;;7.90;99.90;;;;;;5091563;28;20241;-72
2022/01/17 11:42:42;;;;;;;20.57;5.77;;;7.90;99.90;;;;;;5092069;28;20823;-72
2022/01/17 11:45:38;;;;;;;17.87;4.90;;;7.90;99.90;;;;;;5091768;28;20239;-72
2022/01/17 11:48:27;;;;;;;14.80;4.10;;;7.90;99.90;;;;;;5091670;28;20229;-72
2022/01/17 11:50:56;;;;;;;11.97;3.00;;;7.90;99.90;;;;;;5092448;28;20201;-72
2022/01/17 11:53:51;;;;;;;10.37;2.90;;;8.00;99.90;;;;;;5091289;28;20205;-72
2022/01/17 11:56:44;;;;;;;17.30;4.07;;;8.00;99.90;;;;;;5092160;28;20251;-72
2022/01/17 11:59:39;;;;;;;11.10;3.87;;;8.10;99.90;;;;;;5091597;28;20205;-72
2022/01/17 12:02:34;;;;;;;14.17;3.47;;;8.10;99.90;;;;;;5091091;28;20290;-72
2022/01/17 12:05:42;;;;;;;15.23;4.00;;;8.00;99.90;;;;;;5090484;28;20217;-72
2022/01/17 12:08:10;;;;;;;10.87;3.23;;;8.10;99.90;;;;;;5091257;28;20301;-72
2022/01/17 12:10:53;;;;;;;9.70;3.27;;;8.10;99.90;;;;;;5091916;28;20210;-72
2022/01/17 12:13:42;;;;;;;10.53;3.03;;;8.20;99.90;;;;;;5091380;28;20205;-72
2022/01/17 12:16:15;;;;;;;13.73;3.13;;;8.30;99.90;;;;;;5088785;28;20213;-72
2022/01/17 12:18:46;;;;;;;15.00;4.20;;;8.20;99.90;;;;;;5091776;28;20296;-72
2022/01/17 12:21:30;;;;;;;8.00;3.10;;;8.30;99.90;;;;;;5091506;28;20217;-72
2022/01/17 12:24:30;;;;;;;16.00;3.73;;;8.20;99.90;;;;;;5090997;28;20640;-72
2022/01/17 12:27:26;;;;;;;12.53;3.57;;;8.20;99.90;;;;;;5091268;28;20205;-72
2022/01/17 12:29:56;;;;;;;11.17;3.00;;;8.10;99.90;;;;;;5091619;28;20197;-72
2022/01/17 12:32:47;;;;;;;15.37;3.60;;;8.10;99.90;;;;;;5090815;28;20193;-72
2022/01/17 12:35:19;;;;;;;14.37;3.40;;;8.10;99.90;;;;;;5091338;28;20200;-72
2022/01/17 12:37:48;;;;;;;16.33;3.37;;;8.00;99.90;;;;;;5090944;28;20201;-72
2022/01/17 12:40:18;;;;;;;14.60;3.70;;;8.00;99.90;;;;;;5091670;28;20214;-72
2022/01/17 12:42:50;;;;;;;15.13;3.70;;;8.00;99.90;;;;;;5090647;28;20227;-72
2022/01/17 12:45:22;;;;;;;18.47;3.50;;;8.00;99.90;;;;;;5091046;28;20229;-72
2022/01/17 12:47:51;;;;;;;11.03;3.10;;;8.00;99.90;;;;;;5091490;28;20198;-72
2022/01/17 12:50:22;;;;;;;13.47;3.33;;;8.10;99.90;;;;;;5090433;28;20327;-72
2022/01/17 12:52:51;;;;;;;14.77;3.07;;;8.10;99.90;;;;;;5090759;28;20646;-72
2022/01/17 12:55:18;;;;;;;12.77;2.97;;;8.00;99.90;;;;;;5090394;28;20201;-72
2022/01/17 12:57:47;;;;;;;10.00;2.63;;;8.00;99.90;;;;;;5091089;28;20205;-72
2022/01/17 13:00:19;;;;;;;10.27;2.20;;;8.00;99.90;;;;;;5090688;28;20251;-72
2022/01/17 13:02:48;;;;;;;6.60;2.10;;;8.00;99.90;;;;;;5091238;28;20198;-72
2022/01/17 13:05:16;;;;;;;8.50;2.17;;;8.00;99.90;;;;;;5090834;28;20210;-72
2022/01/17 13:07:47;;;;;;;13.97;2.83;;;8.10;99.90;;;;;;5090981;28;20255;-72
2022/01/17 13:10:14;;;;;;;12.97;2.90;;;8.10;99.90;;;;;;5090343;28;20685;-72
2022/01/17 13:12:42;;;;;;;8.30;2.50;;;8.10;99.90;;;;;;5090219;28;20210;-72
2022/01/17 13:15:10;;;;;;;12.07;2.83;;;8.10;99.90;;;;;;5090904;28;20194;-72
2022/01/17 13:17:38;;;;;;;16.77;3.10;;;8.20;99.90;;;;;;5090184;28;20270;-72
2022/01/17 13:20:06;;;;;;;10.43;3.33;;;8.20;99.90;;;;;;5090267;28;20267;-72